Time;durP1;ratioP1;P1;durP2;ratioP2;P2;SDS_P1;SDS_P2;PMS_P1;PMS_P2;Temp;Humidity;BMP_temperature;BMP_pressure;BME280_temperature;BME280_humidity;BME280_pressure;Samples;Min_cycle;Max_cycle;Signal;HPM_P1;HPM_P2
2023/08/14 00:00:35;;;;;;;6.43;3.17;;;;;;;21.26;nan;61850.53;5011962;28;20192;-64
2023/08/14 00:03:01;;;;;;;6.28;2.92;;;;;;;21.54;nan;61786.16;5012449;28;20309;-64
2023/08/14 00:05:27;;;;;;;4.95;3.38;;;;;;;21.49;nan;61772.66;5012720;28;20164;-62
2023/08/14 00:07:52;;;;;;;4.55;3.58;;;;;;;21.41;nan;61774.00;5012576;28;20230;-63
2023/08/14 00:10:17;;;;;;;7.10;4.20;;;;;;;21.15;nan;61724.84;5012970;28;20175;-64
2023/08/14 00:12:43;;;;;;;8.05;4.85;;;;;;;21.34;nan;61732.25;5012456;28;20180;-62
2023/08/14 00:15:08;;;;;;;13.60;4.97;;;;;;;21.05;nan;61791.41;5012450;28;20175;-64
2023/08/14 00:17:34;;;;;;;8.05;4.82;;;;;;;20.97;nan;61766.19;5012218;28;20176;-63
2023/08/14 00:20:00;;;;;;;8.57;4.93;;;;;;;21.07;nan;61902.25;5012716;28;20168;-63
2023/08/14 00:22:26;;;;;;;6.75;4.47;;;;;;;20.63;nan;61780.66;5012608;28;20290;-64
2023/08/14 00:24:51;;;;;;;9.60;5.15;;;;;;;20.93;nan;61959.06;5012410;28;20225;-63
2023/08/14 00:27:16;;;;;;;8.23;5.32;;;;;;;20.87;nan;61963.19;5011264;28;20191;-63
2023/08/14 00:29:42;;;;;;;8.27;5.32;;;;;;;20.63;nan;61658.06;5011797;28;20216;-63
2023/08/14 00:32:07;;;;;;;9.85;5.18;;;;;;;20.66;nan;61651.66;5011090;28;20203;-63
2023/08/14 00:34:32;;;;;;;7.97;5.10;;;;;;;20.49;nan;61738.78;5012359;28;20188;-64
2023/08/14 00:36:58;;;;;;;10.38;5.78;;;;;;;20.39;nan;61615.88;5010745;28;20172;-64
2023/08/14 00:39:23;;;;;;;7.43;4.75;;;;;;;20.52;nan;61925.97;5010991;28;20275;-63
2023/08/14 00:41:49;;;;;;;9.35;5.65;;;;;;;20.38;nan;61632.91;5011868;28;20195;-64
2023/08/14 00:44:14;;;;;;;8.57;5.50;;;;;;;20.11;nan;61576.91;5011309;28;20279;-63
2023/08/14 00:46:40;;;;;;;6.90;4.75;;;;;;;20.12;nan;61616.94;5011055;28;20179;-63
2023/08/14 00:49:06;;;;;;;9.80;5.50;;;;;;;20.11;nan;61574.31;5012138;28;20191;-63
2023/08/14 00:51:33;;;;;;;9.85;5.47;;;;;;;19.67;nan;61695.59;5010697;28;20664;-63
2023/08/14 00:53:58;;;;;;;9.05;5.43;;;;;;;19.78;nan;61492.88;5011198;28;20267;-63
2023/08/14 00:56:24;;;;;;;7.90;5.22;;;;;;;19.96;nan;61849.84;5011352;28;20275;-62
2023/08/14 00:58:50;;;;;;;8.77;5.18;;;;;;;19.95;nan;61618.44;5011031;28;20211;-63
2023/08/14 01:01:16;;;;;;;7.50;5.18;;;;;;;19.85;nan;61682.31;5010534;28;20207;-62
2023/08/14 01:03:42;;;;;;;8.55;4.75;;;;;;;19.87;nan;61586.03;5012029;28;20275;-62
2023/08/14 01:06:07;;;;;;;7.35;4.70;;;;;;;19.89;nan;61676.47;5011508;28;20192;-63
2023/08/14 01:08:34;;;;;;;8.23;4.53;;;;;;;20.07;nan;61587.94;5010956;28;20194;-62
2023/08/14 01:11:23;;;;;;;6.43;4.30;;;;;;;19.97;nan;61617.56;5011601;28;20188;-63
2023/08/14 01:14:10;;;;;;;11.60;4.57;;;;;;;19.80;nan;61658.47;4991085;28;20195;-62
2023/08/14 01:16:41;;;;;;;8.88;5.28;;;;;;;19.61;nan;61569.53;5015936;28;20179;-62
2023/08/14 01:19:15;;;;;;;6.75;4.53;;;;;;;19.55;nan;61643.09;5014935;28;20207;-62
2023/08/14 01:22:03;;;;;;;6.30;4.07;;;;;;;19.51;nan;61591.94;5007449;28;20671;-63
2023/08/14 01:24:59;;;;;;;5.82;3.70;;;;;;;19.33;nan;61583.00;5014755;28;20195;-63
2023/08/14 01:27:26;;;;;;;5.38;3.78;;;;;;;19.31;nan;61560.03;5011524;28;20188;-63
2023/08/14 01:29:58;;;;;;;6.38;3.80;;;;;;;19.19;nan;61517.38;5008754;28;20646;-62
2023/08/14 01:32:23;;;;;;;5.22;3.67;;;;;;;18.97;nan;61485.81;5014992;28;20176;-62
2023/08/14 01:34:50;;;;;;;6.95;4.13;;;;;;;19.16;nan;61519.72;5014499;28;20187;-63
2023/08/14 01:37:46;;;;;;;6.45;3.75;;;;;;;19.25;nan;61503.44;5014847;28;20251;-61
2023/08/14 01:41:03;;;;;;;6.28;3.88;;;;;;;19.19;nan;61558.81;4995333;28;20257;-62
2023/08/14 01:43:36;;;;;;;8.02;4.07;;;;;;;19.21;nan;61514.44;4971456;28;20186;-62
2023/08/14 01:46:03;;;;;;;7.03;4.20;;;;;;;19.32;nan;61553.38;5008329;28;20257;-62
2023/08/14 01:48:30;;;;;;;5.35;3.88;;;;;;;19.23;nan;61498.59;5013537;28;20180;-62
2023/08/14 01:50:56;;;;;;;6.60;3.95;;;;;;;19.10;nan;61515.50;4997536;28;20173;-62
2023/08/14 01:53:22;;;;;;;5.68;4.10;;;;;;;19.24;nan;61634.97;5014224;28;20179;-63
2023/08/14 01:55:47;;;;;;;7.05;3.92;;;;;;;19.06;nan;61663.19;5014631;28;20705;-63
2023/08/14 01:58:13;;;;;;;6.30;3.58;;;;;;;18.99;nan;61451.28;5014582;28;20184;-63
2023/08/14 02:00:38;;;;;;;6.90;3.78;;;;;;;19.21;nan;61524.81;5012440;28;20221;-63
2023/08/14 02:03:04;;;;;;;6.32;3.88;;;;;;;19.28;nan;61569.00;5012661;28;20184;-63
2023/08/14 02:05:29;;;;;;;6.45;3.85;;;;;;;19.27;nan;61511.44;5010760;28;20601;-63
2023/08/14 02:07:55;;;;;;;7.57;3.72;;;;;;;19.13;nan;61477.47;5012450;28;20172;-62
2023/08/14 02:10:21;;;;;;;5.97;3.70;;;;;;;19.27;nan;61425.97;5011698;28;20659;-63
2023/08/14 02:12:46;;;;;;;6.80;3.80;;;;;;;19.47;nan;61564.06;5012554;28;20530;-63
2023/08/14 02:15:12;;;;;;;7.13;3.97;;;;;;;19.40;nan;61603.91;5014230;28;20267;-63
2023/08/14 02:17:38;;;;;;;5.53;3.47;;;;;;;19.40;nan;61528.75;5014637;28;20689;-62
2023/08/14 02:20:04;;;;;;;5.70;3.60;;;;;;;19.25;nan;61625.75;5013814;28;20188;-63
2023/08/14 02:22:29;;;;;;;5.43;3.65;;;;;;;19.23;nan;61511.53;5013620;28;20204;-62
2023/08/14 02:24:55;;;;;;;5.25;3.47;;;;;;;19.39;nan;61521.88;5012865;28;20207;-63
2023/08/14 02:27:20;;;;;;;5.50;3.70;;;;;;;19.19;nan;61507.00;5014241;28;20229;-63
2023/08/14 02:29:46;;;;;;;6.32;3.88;;;;;;;19.26;nan;61510.31;5014275;28;20270;-63
2023/08/14 02:32:11;;;;;;;7.07;4.28;;;;;;;19.13;nan;61622.50;5014233;28;20586;-64
2023/08/14 02:34:52;;;;;;;6.20;3.97;;;;;;;19.26;nan;61527.88;5013951;28;20182;-63
2023/08/14 02:37:18;;;;;;;5.97;3.67;;;;;;;19.14;nan;61566.66;5014400;28;20175;-63
2023/08/14 02:39:44;;;;;;;5.57;3.33;;;;;;;19.30;nan;61516.88;5014059;28;20172;-64
2023/08/14 02:42:10;;;;;;;5.40;3.88;;;;;;;19.17;nan;61543.59;5013992;28;20250;-62
2023/08/14 02:44:36;;;;;;;7.80;4.20;;;;;;;19.14;nan;61768.69;5014087;28;20176;-62
2023/08/14 02:47:03;;;;;;;5.20;3.70;;;;;;;19.03;nan;61631.88;5013532;28;20215;-65
2023/08/14 02:49:29;;;;;;;5.43;3.58;;;;;;;19.21;nan;61527.97;5013106;28;20207;-63
2023/08/14 02:51:55;;;;;;;6.50;3.80;;;;;;;18.90;nan;61493.44;5014229;28;20659;-62
2023/08/14 02:54:20;;;;;;;6.28;3.63;;;;;;;18.88;nan;61444.00;5014255;28;20271;-63
2023/08/14 02:56:46;;;;;;;5.35;3.47;;;;;;;19.19;nan;61525.16;5013759;28;20647;-63
2023/08/14 02:59:12;;;;;;;5.00;3.20;;;;;;;19.19;nan;61483.72;5013014;28;20188;-63
2023/08/14 03:01:37;;;;;;;5.47;3.55;;;;;;;19.09;nan;61527.34;5010261;28;20203;-63
2023/08/14 03:04:03;;;;;;;6.35;3.72;;;;;;;18.59;nan;61525.63;5009586;28;20208;-63
2023/08/14 03:06:31;;;;;;;4.13;3.20;;;;;;;18.99;nan;61596.28;5013536;28;20187;-63
2023/08/14 03:08:56;;;;;;;6.07;3.45;;;;;;;19.04;nan;61671.88;5013456;28;20636;-63
2023/08/14 03:11:22;;;;;;;5.70;3.60;;;;;;;18.93;nan;61455.41;5013299;28;20222;-64
2023/08/14 03:13:47;;;;;;;4.28;3.20;;;;;;;19.11;nan;61493.34;5013493;28;20225;-63
2023/08/14 03:16:13;;;;;;;6.28;3.58;;;;;;;15.69;nan;61683.31;5012765;28;20207;-63
2023/08/14 03:18:39;;;;;;;6.15;3.50;;;;;;;19.13;nan;61513.75;5012259;28;20674;-63
2023/08/14 03:21:04;;;;;;;4.90;3.35;;;;;;;19.07;nan;61475.28;5011322;28;20290;-63
2023/08/14 03:23:29;;;;;;;4.38;3.17;;;;;;;19.11;nan;61503.13;5011774;28;20655;-62
2023/08/14 03:25:55;;;;;;;6.57;3.65;;;;;;;18.96;nan;61499.66;5012788;28;20172;-63
2023/08/14 03:28:20;;;;;;;6.22;3.58;;;;;;;18.89;nan;61391.34;5013004;28;20220;-63
2023/08/14 03:30:45;;;;;;;5.78;3.85;;;;;;;19.13;nan;61534.47;5013013;28;20186;-63
2023/08/14 03:33:11;;;;;;;6.68;4.10;;;;;;;18.94;nan;61435.84;5012733;28;20196;-63
2023/08/14 03:35:36;;;;;;;5.07;3.53;;;;;;;18.94;nan;61492.22;5010882;28;21196;-62
2023/08/14 03:38:02;;;;;;;6.00;3.88;;;;;;;19.12;nan;61618.22;5011805;28;20202;-63
2023/08/14 03:40:27;;;;;;;6.80;3.83;;;;;;;19.11;nan;61477.22;5012542;28;20235;-62
2023/08/14 03:42:53;;;;;;;7.05;3.70;;;;;;;19.29;nan;61505.38;5012308;28;20765;-64
2023/08/14 03:45:18;;;;;;;6.65;3.80;;;;;;;19.67;nan;61563.38;5011820;28;20184;-62
2023/08/14 03:47:44;;;;;;;6.20;3.50;;;;;;;19.97;nan;61727.06;5011692;28;20184;-63
2023/08/14 03:50:09;;;;;;;5.93;3.90;;;;;;;20.42;nan;61540.84;5011281;28;20199;-63
2023/08/14 03:52:34;;;;;;;4.82;3.45;;;;;;;21.05;nan;61723.84;5012356;28;20246;-64
2023/08/14 03:55:00;;;;;;;5.28;3.42;;;;;;;21.71;nan;61789.84;5012410;28;20172;-64
2023/08/14 03:57:25;;;;;;;5.65;3.47;;;;;;;22.29;nan;61836.91;5012431;28;20274;-63
2023/08/14 03:59:51;;;;;;;8.55;3.72;;;;;;;22.55;nan;61852.28;5011225;28;20648;-63
2023/08/14 04:02:17;;;;;;;5.53;3.80;;;;;;;23.25;nan;62085.66;5012086;28;20203;-64
2023/08/14 04:04:42;;;;;;;7.82;3.53;;;;;;;23.55;nan;62014.34;5012105;28;20757;-63
2023/08/14 04:07:08;;;;;;;6.97;4.22;;;;;;;24.32;nan;62095.63;5010942;28;20678;-64
2023/08/14 04:09:33;;;;;;;5.75;3.92;;;;;;;24.83;nan;62210.63;5011690;28;20214;-63
2023/08/14 04:12:01;;;;;;;5.95;3.13;;;;;;;25.48;nan;62235.03;5011486;28;20180;-65
2023/08/14 04:14:26;;;;;;;6.00;4.13;;;;;;;25.74;nan;62281.91;5012252;28;20184;-66
2023/08/14 04:16:53;;;;;;;5.95;3.60;;;;;;;26.36;nan;62601.03;5011938;28;20180;-63
2023/08/14 04:19:20;;;;;;;5.97;3.90;;;;;;;26.53;nan;62402.94;5011825;28;20191;-64
2023/08/14 04:21:46;;;;;;;5.40;3.40;;;;;;;26.80;nan;62475.16;5012062;28;20277;-65
2023/08/14 04:24:12;;;;;;;5.47;3.75;;;;;;;26.76;nan;62439.69;5012085;28;20636;-66
2023/08/14 04:26:38;;;;;;;5.40;3.78;;;;;;;26.74;nan;62515.50;5011920;28;20172;-62
2023/08/14 04:29:06;;;;;;;3.90;3.22;;;;;;;26.88;nan;62539.41;5011696;28;20254;-64
2023/08/14 04:31:36;;;;;;;5.03;3.28;;;;;;;26.57;nan;62570.06;5010078;28;20172;-64
2023/08/14 04:34:03;;;;;;;5.75;4.03;;;;;;;26.73;nan;62472.41;5011729;28;20180;-63
2023/08/14 04:36:33;;;;;;;4.20;3.35;;;;;;;26.29;nan;62522.84;5010853;28;20184;-63
2023/08/14 04:38:58;;;;;;;6.05;3.75;;;;;;;25.85;nan;62295.00;5011580;28;20239;-63
2023/08/14 04:41:27;;;;;;;4.95;3.28;;;;;;;25.71;nan;62297.34;5011299;28;20629;-63
2023/08/14 04:43:56;;;;;;;7.97;4.03;;;;;;;25.88;nan;62355.47;5010920;28;20184;-62
2023/08/14 04:46:38;;;;;;;4.78;3.58;;;;;;;25.74;nan;62397.09;5010245;28;20238;-64
2023/08/14 04:49:04;;;;;;;5.65;3.47;;;;;;;25.85;nan;62323.81;5008697;28;20250;-62
2023/08/14 04:51:31;;;;;;;6.72;3.28;;;;;;;25.23;nan;62344.63;5011443;28;20194;-63
2023/08/14 04:53:57;;;;;;;6.70;3.90;;;;;;;25.18;nan;62326.41;5010288;28;20187;-64
2023/08/14 04:56:23;;;;;;;6.93;3.95;;;;;;;25.22;nan;62268.19;5010053;28;20199;-64
2023/08/14 04:58:49;;;;;;;7.10;3.90;;;;;;;24.96;nan;62218.22;5009155;28;20188;-63
2023/08/14 05:01:14;;;;;;;7.60;3.72;;;;;;;24.53;nan;62154.06;5010533;28;20289;-64
2023/08/14 05:03:40;;;;;;;5.22;3.53;;;;;;;24.10;nan;62069.06;5010302;28;20188;-64
2023/08/14 05:06:05;;;;;;;5.40;3.53;;;;;;;24.05;nan;62044.53;5011007;28;20176;-63
2023/08/14 05:08:31;;;;;;;4.88;3.55;;;;;;;24.12;nan;62190.91;5011064;28;20182;-63
2023/08/14 05:10:56;;;;;;;6.90;3.47;;;;;;;20.83;nan;61963.81;5011065;28;20199;-63
2023/08/14 05:13:22;;;;;;;5.43;3.67;;;;;;;23.72;nan;62136.00;5011267;28;20175;-62
2023/08/14 05:15:50;;;;;;;6.25;3.72;;;;;;;23.59;nan;62016.28;5010623;28;20238;-63
2023/08/14 05:18:16;;;;;;;5.43;3.53;;;;;;;23.50;nan;62076.47;5010305;28;20180;-63
2023/08/14 05:20:48;;;;;;;5.43;3.47;;;;;;;23.31;nan;61995.97;5009982;28;20180;-64
2023/08/14 05:23:15;;;;;;;5.80;3.35;;;;;;;23.59;nan;62071.63;5010917;28;20187;-63
2023/08/14 05:25:46;;;;;;;5.10;3.63;;;;;;;23.32;nan;61954.81;5011084;28;20198;-63
2023/08/14 05:28:12;;;;;;;10.15;3.60;;;;;;;23.53;nan;62051.78;5011085;28;20228;-62
2023/08/14 05:30:43;;;;;;;6.07;3.50;;;;;;;23.60;nan;62025.81;5010972;28;20172;-62
2023/08/14 05:33:08;;;;;;;4.38;3.58;;;;;;;23.62;nan;62155.94;5010810;28;20164;-63
2023/08/14 05:35:34;;;;;;;7.13;4.00;;;;;;;23.62;nan;61975.91;5010709;28;20321;-62
2023/08/14 05:37:59;;;;;;;6.00;3.95;;;;;;;23.87;nan;62123.25;5009984;28;20187;-63
2023/08/14 05:40:26;;;;;;;5.25;3.38;;;;;;;23.76;nan;62200.59;5009148;28;20195;-62
2023/08/14 05:43:06;;;;;;;5.22;3.45;;;;;;;22.45;nan;62039.97;5008986;28;20192;-62
2023/08/14 05:45:41;;;;;;;6.65;3.22;;;;;;;24.08;nan;62218.25;5006877;28;20214;-63
2023/08/14 05:48:07;;;;;;;7.88;4.20;;;;;;;24.15;nan;62108.16;5008276;28;20245;-63
2023/08/14 05:50:33;;;;;;;6.03;3.63;;;;;;;;;;5010416;28;20184;-63
2023/08/14 05:53:03;;;;;;;11.68;4.18;;;;;;;24.39;nan;62083.25;5010340;28;20188;-63
2023/08/14 05:55:29;;;;;;;5.47;3.38;;;;;;;24.60;nan;62172.47;5010309;28;20183;-63
2023/08/14 05:57:56;;;;;;;7.60;3.90;;;;;;;24.45;nan;62152.78;5011786;28;20184;-62
2023/08/14 06:00:24;;;;;;;5.03;3.38;;;;;;;24.68;nan;62141.25;5010668;28;20191;-63
2023/08/14 06:02:51;;;;;;;5.10;3.38;;;;;;;24.67;nan;62098.31;5013134;28;20253;-63
2023/08/14 06:05:16;;;;;;;9.88;4.30;;;;;;;24.81;nan;62197.88;5014024;28;20187;-64
2023/08/14 06:07:42;;;;;;;5.07;3.53;;;;;;;25.01;nan;62179.44;5013320;28;20246;-62
2023/08/14 06:10:07;;;;;;;5.75;3.40;;;;;;;22.32;nan;63735.56;5014130;28;20183;-63
2023/08/14 06:12:33;;;;;;;6.47;3.08;;;;;;;24.53;nan;62344.25;5013934;28;20183;-64
2023/08/14 06:14:59;;;;;;;4.13;2.67;;;;;;;24.69;nan;62097.97;5014329;28;20176;-63
2023/08/14 06:17:25;;;;;;;5.60;3.03;;;;;;;24.62;nan;62138.19;5013625;28;20219;-62
2023/08/14 06:19:51;;;;;;;5.03;2.97;;;;;;;24.88;nan;62324.09;5014047;28;20192;-63
2023/08/14 06:22:17;;;;;;;7.13;3.30;;;;;;;25.09;nan;62282.13;5013463;28;20199;-63
2023/08/14 06:24:43;;;;;;;5.75;3.38;;;;;;;25.03;nan;62346.47;5013445;28;20255;-63
2023/08/14 06:27:09;;;;;;;4.78;2.92;;;;;;;24.97;nan;62331.78;5013989;28;20186;-62
2023/08/14 06:29:34;;;;;;;4.78;2.65;;;;;;;25.13;nan;62330.59;5014050;28;20278;-62
2023/08/14 06:32:00;;;;;;;5.63;3.00;;;;;;;25.55;nan;62302.09;5014149;28;20168;-63
2023/08/14 06:34:26;;;;;;;3.85;2.75;;;;;;;25.67;nan;62297.47;5012918;28;20540;-63
2023/08/14 06:36:52;;;;;;;4.15;2.88;;;;;;;25.60;nan;62447.13;5013855;28;20175;-63
2023/08/14 06:39:18;;;;;;;5.00;3.28;;;;;;;25.92;nan;62349.56;5014552;28;20172;-63
2023/08/14 06:41:43;;;;;;;3.78;2.80;;;;;;;26.01;nan;62359.25;5013916;28;20204;-63
2023/08/14 06:44:09;;;;;;;5.78;3.10;;;;;;;26.45;nan;62482.34;5013690;28;20551;-63
2023/08/14 06:46:35;;;;;;;4.68;2.97;;;;;;;26.18;nan;62486.66;5014041;28;20230;-63
2023/08/14 06:49:00;;;;;;;5.40;3.08;;;;;;;26.43;nan;62480.63;5013659;28;20176;-65
2023/08/14 06:51:26;;;;;;;4.63;3.13;;;;;;;26.57;nan;62512.38;5013752;28;20238;-63
2023/08/14 06:53:51;;;;;;;5.22;3.33;;;;;;;26.76;nan;62496.81;5012967;28;20219;-63
2023/08/14 06:56:17;;;;;;;4.60;3.25;;;;;;;26.85;nan;62522.28;5013998;28;20176;-64
2023/08/14 06:58:42;;;;;;;4.47;3.00;;;;;;;26.72;nan;62455.53;5013460;28;20176;-64
2023/08/14 07:01:08;;;;;;;4.40;3.15;;;;;;;26.70;nan;62442.75;5013484;28;20195;-64
2023/08/14 07:03:33;;;;;;;3.83;2.95;;;;;;;26.95;nan;62492.34;5013287;28;20621;-64
2023/08/14 07:05:58;;;;;;;4.53;2.50;;;;;;;27.27;nan;62567.72;5013743;28;20194;-63
2023/08/14 07:08:24;;;;;;;4.00;2.92;;;;;;;27.39;nan;62547.31;5011494;28;20896;-64
2023/08/14 07:10:50;;;;;;;5.20;3.90;;;;;;;27.39;nan;62538.88;5012504;28;20180;-64
2023/08/14 07:13:15;;;;;;;5.18;3.55;;;;;;;27.57;nan;62599.44;5013349;28;20187;-64
2023/08/14 07:15:41;;;;;;;4.78;3.28;;;;;;;27.75;nan;62729.22;5013137;28;20176;-64
2023/08/14 07:18:07;;;;;;;5.03;3.40;;;;;;;27.16;nan;62615.47;5012717;28;20191;-64
2023/08/14 07:20:33;;;;;;;4.57;3.47;;;;;;;27.84;nan;62587.72;5011885;28;20261;-64
2023/08/14 07:22:59;;;;;;;8.45;2.92;;;;;;;28.00;nan;62724.31;5013004;28;20672;-64
2023/08/14 07:25:25;;;;;;;5.70;3.28;;;;;;;28.70;nan;62866.59;5011037;28;20576;-63
2023/08/14 07:27:50;;;;;;;3.50;2.60;;;;;;;28.91;nan;62750.66;5012144;28;20258;-64
2023/08/14 07:30:15;;;;;;;4.22;3.08;;;;;;;29.02;nan;62789.00;5013194;28;20178;-63
2023/08/14 07:32:41;;;;;;;3.88;2.80;;;;;;;29.37;nan;62844.97;5012010;28;20245;-64
2023/08/14 07:35:07;;;;;;;4.45;3.00;;;;;;;29.50;nan;62869.84;5012476;28;20187;-64
2023/08/14 07:37:32;;;;;;;3.75;2.60;;;;;;;29.66;nan;62857.16;5013144;28;20179;-64
2023/08/14 07:39:58;;;;;;;4.82;2.67;;;;;;;29.60;nan;62855.53;5012749;28;20634;-63
2023/08/14 07:42:24;;;;;;;3.58;2.63;;;;;;;29.48;nan;62844.41;5012102;28;20214;-64
2023/08/14 07:44:49;;;;;;;3.67;2.58;;;;;;;29.54;nan;62885.56;5012594;28;20267;-64
2023/08/14 07:47:14;;;;;;;3.67;2.85;;;;;;;29.73;nan;63002.22;5011899;28;20186;-64
2023/08/14 07:49:40;;;;;;;3.67;2.85;;;;;;;29.97;nan;62957.50;5011514;28;20697;-64
2023/08/14 07:52:05;;;;;;;4.43;2.78;;;;;;;29.92;nan;63033.50;5013106;28;20611;-65
2023/08/14 07:54:31;;;;;;;3.05;2.47;;;;;;;30.14;nan;62932.81;5012768;28;20259;-64
2023/08/14 07:56:57;;;;;;;5.93;3.17;;;;;;;30.27;nan;63156.09;5012702;28;20209;-64
2023/08/14 07:59:22;;;;;;;3.22;2.42;;;;;;;30.56;nan;63064.94;5011677;28;20642;-66
2023/08/14 08:01:48;;;;;;;3.15;2.50;;;;;;;30.75;nan;63143.69;5011759;28;20199;-64
2023/08/14 08:04:13;;;;;;;3.53;2.92;;;;;;;30.68;nan;63084.00;5012416;28;20179;-64
2023/08/14 08:06:39;;;;;;;3.88;2.83;;;;;;;30.56;nan;63064.94;5012748;28;20207;-65
2023/08/14 08:09:04;;;;;;;3.85;2.88;;;;;;;30.46;nan;63000.06;5011891;28;20187;-65
2023/08/14 08:11:30;;;;;;;3.30;2.70;;;;;;;30.70;nan;62840.81;5012371;28;20199;-64
2023/08/14 08:13:56;;;;;;;4.32;2.78;;;;;;;30.53;nan;62984.94;5011597;28;20655;-65
2023/08/14 08:16:21;;;;;;;4.90;2.70;;;;;;;30.27;nan;63021.56;5012467;28;20183;-65
2023/08/14 08:18:47;;;;;;;3.67;2.78;;;;;;;30.26;nan;63073.19;5010197;28;20180;-65
2023/08/14 08:21:12;;;;;;;4.30;2.90;;;;;;;30.26;nan;63046.22;5009848;28;20573;-65
2023/08/14 08:23:37;;;;;;;4.53;3.00;;;;;;;30.18;nan;62987.50;5011789;28;20187;-64
2023/08/14 08:26:03;;;;;;;3.03;2.50;;;;;;;28.13;nan;62736.00;5010952;28;20183;-65
2023/08/14 08:28:28;;;;;;;3.50;2.50;;;;;;;29.96;nan;62927.38;5007065;28;20227;-65
2023/08/14 08:30:54;;;;;;;4.00;2.80;;;;;;;25.17;nan;62265.09;5012258;28;20647;-65
2023/08/14 08:33:19;;;;;;;3.92;3.08;;;;;;;29.92;nan;62983.41;5011027;28;20349;-64
2023/08/14 08:35:48;;;;;;;4.05;2.75;;;;;;;29.78;nan;62880.91;5011950;28;20175;-66
2023/08/14 08:38:14;;;;;;;3.80;2.60;;;;;;;29.68;nan;62874.69;5010970;28;20191;-69
2023/08/14 08:40:41;;;;;;;5.93;2.85;;;;;;;29.71;nan;62891.88;5010296;28;20559;-64
2023/08/14 08:43:09;;;;;;;3.33;2.47;;;;;;;29.48;nan;62809.59;5010072;28;20195;-63
2023/08/14 08:45:38;;;;;;;3.85;2.70;;;;;;;29.49;nan;63064.22;5010247;28;20709;-70
2023/08/14 08:48:05;;;;;;;5.03;2.90;;;;;;;29.44;nan;62870.88;5010266;28;20238;-63
2023/08/14 08:50:31;;;;;;;3.75;3.03;;;;;;;29.23;nan;62892.66;5011371;28;20175;-65
2023/08/14 08:52:57;;;;;;;4.85;3.10;;;;;;;29.04;nan;62778.16;5011231;28;20184;-63
2023/08/14 08:55:22;;;;;;;3.80;2.80;;;;;;;29.42;nan;62942.88;5011032;28;20314;-65
2023/08/14 08:57:54;;;;;;;3.53;2.78;;;;;;;29.70;nan;62859.13;5010606;28;20206;-64
2023/08/14 09:00:21;;;;;;;4.25;3.00;;;;;;;30.06;nan;63034.34;5011551;28;20222;-65
2023/08/14 09:02:46;;;;;;;6.35;3.05;;;;;;;30.24;nan;63022.84;5011584;28;20251;-64
2023/08/14 09:05:12;;;;;;;8.07;4.53;;;;;;;30.22;nan;62978.31;5010750;28;20187;-65
2023/08/14 09:07:38;;;;;;;6.07;3.72;;;;;;;30.55;nan;63079.59;5010479;28;20176;-64
2023/08/14 09:10:03;;;;;;;3.53;2.60;;;;;;;30.61;nan;63162.47;5009619;28;20709;-65
2023/08/14 09:12:30;;;;;;;3.85;2.63;;;;;;;30.46;nan;63050.78;5011290;28;20661;-66
2023/08/14 09:15:07;;;;;;;4.28;2.90;;;;;;;30.29;nan;62994.28;5010226;28;20270;-65
2023/08/14 09:17:32;;;;;;;3.08;2.53;;;;;;;30.39;nan;62994.63;5010025;28;20183;-64
2023/08/14 09:19:58;;;;;;;7.10;3.35;;;;;;;30.28;nan;63074.91;5010485;28;20210;-64
2023/08/14 09:22:29;;;;;;;3.53;2.75;;;;;;;30.56;nan;63101.88;5010804;28;20293;-65
2023/08/14 09:24:56;;;;;;;4.55;3.10;;;;;;;30.81;nan;63060.84;5009819;28;20345;-64
2023/08/14 09:27:22;;;;;;;5.35;2.97;;;;;;;31.03;nan;63109.91;5009496;28;20192;-66
2023/08/14 09:29:52;;;;;;;4.25;3.10;;;;;;;31.20;nan;63177.03;5009208;28;20496;-64
2023/08/14 09:32:22;;;;;;;4.45;3.00;;;;;;;31.09;nan;63101.56;5009054;28;20567;-64
2023/08/14 09:34:47;;;;;;;4.65;2.92;;;;;;;31.02;nan;63188.00;5013724;28;20502;-65
2023/08/14 09:37:12;;;;;;;3.45;2.85;;;;;;;30.82;nan;63225.66;5013593;28;20179;-65
2023/08/14 09:39:38;;;;;;;5.00;3.10;;;;;;;30.62;nan;63264.47;5015004;28;20183;-64
2023/08/14 09:42:03;;;;;;;5.07;3.00;;;;;;;30.49;nan;63117.56;5014967;28;20824;-64
2023/08/14 09:44:29;;;;;;;5.28;3.20;;;;;;;30.70;nan;63059.88;5014766;28;20242;-64
2023/08/14 09:46:59;;;;;;;3.88;2.75;;;;;;;30.81;nan;63095.16;5013937;28;20187;-64
2023/08/14 09:49:27;;;;;;;4.45;3.15;;;;;;;30.49;nan;63138.09;5014300;28;20175;-65
2023/08/14 09:51:57;;;;;;;5.32;3.33;;;;;;;30.32;nan;63094.75;5014134;28;20187;-64
2023/08/14 09:54:33;;;;;;;3.35;2.58;;;;;;;30.91;nan;63074.97;5014243;28;20192;-65
2023/08/14 09:57:05;;;;;;;4.82;3.00;;;;;;;31.10;nan;63194.59;5013709;28;20179;-65
2023/08/14 09:59:30;;;;;;;3.55;2.97;;;;;;;31.44;nan;63217.31;5013895;28;20660;-65
2023/08/14 10:01:58;;;;;;;4.35;2.90;;;;;;;31.53;nan;63164.25;5012140;28;20231;-65
2023/08/14 10:04:25;;;;;;;4.80;3.05;;;;;;;32.18;nan;63315.28;5014554;28;20619;-64
2023/08/14 10:06:52;;;;;;;4.30;2.78;;;;;;;32.14;nan;63294.78;5014509;28;20175;-64
2023/08/14 10:09:21;;;;;;;5.05;2.78;;;;;;;32.32;nan;63312.88;5013910;28;20542;-64
2023/08/14 10:11:48;;;;;;;4.03;2.80;;;;;;;32.07;nan;63246.44;5013310;28;20253;-64
2023/08/14 10:14:17;;;;;;;6.80;3.30;;;;;;;32.22;nan;63298.16;5013288;28;20180;-65
2023/08/14 10:16:43;;;;;;;4.43;3.05;;;;;;;32.56;nan;63379.13;5014629;28;20179;-65
2023/08/14 10:19:12;;;;;;;4.20;2.72;;;;;;;32.19;nan;63170.31;5013808;28;20180;-65
2023/08/14 10:21:39;;;;;;;4.28;3.10;;;;;;;32.08;nan;63234.97;5009693;28;20207;-65
2023/08/14 10:24:07;;;;;;;3.08;2.65;;;;;;;32.29;nan;63359.13;5014285;28;20191;-63
2023/08/14 10:26:33;;;;;;;4.28;2.85;;;;;;;32.16;nan;63381.78;5012795;28;20302;-65
2023/08/14 10:28:59;;;;;;;3.53;2.58;;;;;;;32.07;nan;63410.47;5013382;28;20308;-65
2023/08/14 10:31:28;;;;;;;3.83;2.60;;;;;;;31.46;nan;63270.41;5013454;28;20221;-66
2023/08/14 10:33:56;;;;;;;3.38;2.80;;;;;;;29.76;nan;63102.63;5013688;28;20266;-66
2023/08/14 10:36:22;;;;;;;3.95;2.60;;;;;;;31.68;nan;63281.41;5012126;28;20670;-65
2023/08/14 10:38:49;;;;;;;3.80;2.95;;;;;;;32.22;nan;63296.09;5013083;28;20183;-65
2023/08/14 10:41:17;;;;;;;3.92;2.70;;;;;;;32.29;nan;63290.91;5013739;28;21235;-64
2023/08/14 10:43:47;;;;;;;4.72;2.83;;;;;;;32.64;nan;63381.03;5013476;28;20171;-65
2023/08/14 10:46:15;;;;;;;4.45;2.80;;;;;;;32.73;nan;63388.19;5012961;28;20238;-65
2023/08/14 10:48:42;;;;;;;4.53;2.67;;;;;;;32.30;nan;63321.19;5012651;28;20176;-66
2023/08/14 10:51:09;;;;;;;3.15;2.70;;;;;;;31.88;nan;63357.94;5012876;28;20265;-65
2023/08/14 10:53:36;;;;;;;3.53;2.72;;;;;;;31.98;nan;63231.38;5013769;28;20666;-64
2023/08/14 10:56:03;;;;;;;4.00;2.60;;;;;;;32.11;nan;63278.09;5013705;28;20175;-65
2023/08/14 10:58:29;;;;;;;3.60;2.60;;;;;;;31.74;nan;63285.69;5011709;28;20588;-64
2023/08/14 11:01:10;;;;;;;4.20;2.90;;;;;;;31.87;nan;63345.63;5013355;28;20191;-65
2023/08/14 11:03:58;;;;;;;3.38;2.50;;;;;;;32.11;nan;63307.22;5007529;28;20189;-64
2023/08/14 11:06:25;;;;;;;5.70;2.42;;;;;;;32.32;nan;63354.69;5010983;28;20194;-66
2023/08/14 11:09:02;;;;;;;4.57;3.03;;;;;;;32.12;nan;63348.06;5011527;28;20242;-65
2023/08/14 11:11:28;;;;;;;4.05;2.67;;;;;;;32.18;nan;63290.91;5012402;28;20183;-65
2023/08/14 11:13:53;;;;;;;4.07;3.10;;;;;;;32.42;nan;63419.72;5010753;28;20237;-65
2023/08/14 11:16:20;;;;;;;3.42;2.60;;;;;;;32.66;nan;63366.84;5012830;28;20184;-65
2023/08/14 11:18:45;;;;;;;3.95;2.58;;;;;;;32.82;nan;63478.03;5012538;28;20712;-66
2023/08/14 11:21:12;;;;;;;4.10;2.85;;;;;;;33.01;nan;63415.19;5012023;28;20199;-65
2023/08/14 11:23:38;;;;;;;4.88;3.00;;;;;;;33.36;nan;63695.69;5012469;28;20270;-65
2023/08/14 11:26:03;;;;;;;3.65;2.47;;;;;;;33.20;nan;63389.41;5007894;28;20306;-66
2023/08/14 11:28:31;;;;;;;4.05;3.10;;;;;;;33.11;nan;63535.38;5010540;28;20226;-66
2023/08/14 11:30:57;;;;;;;4.60;3.00;;;;;;;32.97;nan;63426.47;5012229;28;20262;-66
2023/08/14 11:33:22;;;;;;;3.75;2.60;;;;;;;32.38;nan;63288.06;5011814;28;20322;-66
2023/08/14 11:35:48;;;;;;;3.67;2.78;;;;;;;31.81;nan;63233.53;5010963;28;20569;-66
2023/08/14 11:38:13;;;;;;;3.83;2.67;;;;;;;32.10;nan;63332.50;5012171;28;20188;-65
2023/08/14 11:40:42;;;;;;;5.50;2.92;;;;;;;32.31;nan;63427.63;5013121;28;20253;-66
2023/08/14 11:43:08;;;;;;;3.40;2.67;;;;;;;32.59;nan;63412.31;5012811;28;20214;-65
2023/08/14 11:45:35;;;;;;;3.83;2.53;;;;;;;32.71;nan;63510.34;5012729;28;20545;-65
2023/08/14 11:48:01;;;;;;;5.32;3.00;;;;;;;32.22;nan;63292.88;5013018;28;20199;-65
2023/08/14 11:50:26;;;;;;;3.60;2.67;;;;;;;31.79;nan;63238.56;5012005;28;20329;-64